sensor_id;sensor_type;location;lat;lon;timestamp;pressure;altitude;pressure_sealevel;temperature;humidity
57668;BME280;43499;52.366;12.912;2024-02-21T00:00:02;101700.91;;;9.13;76.65
57668;BME280;43499;52.366;12.912;2024-02-21T00:01:05;101728.09;;;9.22;76.35
57668;BME280;43499;52.366;12.912;2024-02-21T00:02:06;101698.13;;;9.02;76.63
57668;BME280;43499;52.366;12.912;2024-02-21T00:03:07;101721.63;;;9.27;76.39
57668;BME280;43499;52.366;12.912;2024-02-21T00:04:08;101725.94;;;9.18;76.47
57668;BME280;43499;52.366;12.912;2024-02-21T00:05:09;101692.25;;;8.96;77.20
57668;BME280;43499;52.366;12.912;2024-02-21T00:06:10;101698.56;;;8.98;76.90
57668;BME280;43499;52.366;12.912;2024-02-21T00:07:11;101713.69;;;9.09;77.04
57668;BME280;43499;52.366;12.912;2024-02-21T00:08:12;101672.50;;;8.91;77.83
57668;BME280;43499;52.366;12.912;2024-02-21T00:09:13;101696.06;;;8.82;77.29
57668;BME280;43499;52.366;12.912;2024-02-21T00:10:14;101710.00;;;8.99;77.42
57668;BME280;43499;52.366;12.912;2024-02-21T00:11:16;101701.97;;;8.97;77.68
57668;BME280;43499;52.366;12.912;2024-02-21T00:12:17;101689.78;;;8.98;77.34
57668;BME280;43499;52.366;12.912;2024-02-21T00:13:18;101698.63;;;9.16;77.14
57668;BME280;43499;52.366;12.912;2024-02-21T00:14:19;101703.69;;;9.05;77.16
57668;BME280;43499;52.366;12.912;2024-02-21T00:15:20;101710.78;;;9.15;76.91
57668;BME280;43499;52.366;12.912;2024-02-21T00:16:22;101696.91;;;9.16;76.82
57668;BME280;43499;52.366;12.912;2024-02-21T00:17:23;101712.81;;;9.26;76.39
57668;BME280;43499;52.366;12.912;2024-02-21T00:18:24;101709.72;;;9.13;77.19
57668;BME280;43499;52.366;12.912;2024-02-21T00:19:25;101696.09;;;8.91;77.41
57668;BME280;43499;52.366;12.912;2024-02-21T00:20:26;101706.16;;;9.13;77.08
57668;BME280;43499;52.366;12.912;2024-02-21T00:21:27;101697.69;;;9.06;77.08
57668;BME280;43499;52.366;12.912;2024-02-21T00:22:28;101676.22;;;9.02;76.63
57668;BME280;43499;52.366;12.912;2024-02-21T00:23:32;101704.31;;;9.03;76.82
57668;BME280;43499;52.366;12.912;2024-02-21T00:24:33;101687.63;;;9.02;77.29
57668;BME280;43499;52.366;12.912;2024-02-21T00:25:34;101697.78;;;8.99;77.35
57668;BME280;43499;52.366;12.912;2024-02-21T00:26:35;101705.34;;;8.87;77.67
57668;BME280;43499;52.366;12.912;2024-02-21T00:27:36;101693.47;;;8.91;78.17
57668;BME280;43499;52.366;12.912;2024-02-21T00:28:37;101690.25;;;9.02;77.72
57668;BME280;43499;52.366;12.912;2024-02-21T00:29:38;101691.75;;;8.83;78.13
57668;BME280;43499;52.366;12.912;2024-02-21T00:30:39;101695.75;;;8.88;77.66
57668;BME280;43499;52.366;12.912;2024-02-21T00:31:40;101706.09;;;8.86;77.70
57668;BME280;43499;52.366;12.912;2024-02-21T00:32:45;101701.94;;;8.88;78.04
57668;BME280;43499;52.366;12.912;2024-02-21T00:33:46;101698.47;;;9.14;78.04
57668;BME280;43499;52.366;12.912;2024-02-21T00:34:47;101699.69;;;9.09;77.33
57668;BME280;43499;52.366;12.912;2024-02-21T00:35:48;101693.19;;;9.05;77.15
57668;BME280;43499;52.366;12.912;2024-02-21T00:36:49;101693.53;;;9.08;77.34
57668;BME280;43499;52.366;12.912;2024-02-21T00:37:51;101692.53;;;8.82;78.84
57668;BME280;43499;52.366;12.912;2024-02-21T00:38:52;101661.31;;;8.67;78.80
57668;BME280;43499;52.366;12.912;2024-02-21T00:39:54;101690.88;;;9.00;78.22
57668;BME280;43499;52.366;12.912;2024-02-21T00:40:55;101696.38;;;8.85;78.08
57668;BME280;43499;52.366;12.912;2024-02-21T00:41:56;101642.41;;;8.45;78.45
57668;BME280;43499;52.366;12.912;2024-02-21T00:42:57;101692.69;;;8.92;79.03
57668;BME280;43499;52.366;12.912;2024-02-21T00:43:58;101692.53;;;8.82;78.08
57668;BME280;43499;52.366;12.912;2024-02-21T00:45:00;101695.91;;;8.80;79.19
57668;BME280;43499;52.366;12.912;2024-02-21T00:46:01;101687.81;;;8.61;79.15
57668;BME280;43499;52.366;12.912;2024-02-21T00:47:02;101682.16;;;8.74;78.57
57668;BME280;43499;52.366;12.912;2024-02-21T00:48:04;101695.09;;;8.73;79.22
57668;BME280;43499;52.366;12.912;2024-02-21T00:49:05;101690.81;;;8.82;78.87
57668;BME280;43499;52.366;12.912;2024-02-21T00:50:07;101684.97;;;8.85;78.38
57668;BME280;43499;52.366;12.912;2024-02-21T00:51:08;101682.84;;;8.89;78.06
57668;BME280;43499;52.366;12.912;2024-02-21T00:52:09;101653.31;;;8.74;77.97
57668;BME280;43499;52.366;12.912;2024-02-21T00:53:10;101633.25;;;8.66;78.36
57668;BME280;43499;52.366;12.912;2024-02-21T00:54:11;101686.63;;;8.75;78.15
57668;BME280;43499;52.366;12.912;2024-02-21T00:55:12;101659.81;;;8.87;78.11
57668;BME280;43499;52.366;12.912;2024-02-21T00:56:13;101666.31;;;8.99;77.63
57668;BME280;43499;52.366;12.912;2024-02-21T00:57:14;101656.28;;;8.86;77.72
57668;BME280;43499;52.366;12.912;2024-02-21T00:58:15;101680.69;;;8.94;77.45
57668;BME280;43499;52.366;12.912;2024-02-21T00:59:16;101667.06;;;8.80;77.74
57668;BME280;43499;52.366;12.912;2024-02-21T01:00:18;101651.34;;;8.47;78.61
57668;BME280;43499;52.366;12.912;2024-02-21T01:01:23;101659.34;;;8.73;78.26
57668;BME280;43499;52.366;12.912;2024-02-21T01:02:26;101681.25;;;8.83;77.84
57668;BME280;43499;52.366;12.912;2024-02-21T01:03:27;101674.50;;;8.85;77.93
57668;BME280;43499;52.366;12.912;2024-02-21T01:04:28;101646.25;;;8.73;78.11
57668;BME280;43499;52.366;12.912;2024-02-21T01:05:29;101644.06;;;8.69;78.22
57668;BME280;43499;52.366;12.912;2024-02-21T01:06:30;101679.56;;;8.83;78.19
57668;BME280;43499;52.366;12.912;2024-02-21T01:07:31;101673.03;;;8.71;78.76
57668;BME280;43499;52.366;12.912;2024-02-21T01:08:32;101669.84;;;8.73;78.28
57668;BME280;43499;52.366;12.912;2024-02-21T01:09:33;101671.09;;;8.86;77.96
57668;BME280;43499;52.366;12.912;2024-02-21T01:10:34;101641.78;;;8.72;77.99
57668;BME280;43499;52.366;12.912;2024-02-21T01:11:35;101665.56;;;9.00;77.95
57668;BME280;43499;52.366;12.912;2024-02-21T01:12:36;101671.75;;;9.01;77.96
57668;BME280;43499;52.366;12.912;2024-02-21T01:13:37;101668.66;;;8.96;77.74
57668;BME280;43499;52.366;12.912;2024-02-21T01:14:38;101670.69;;;9.07;77.91
57668;BME280;43499;52.366;12.912;2024-02-21T01:15:39;101666.97;;;9.05;77.62
57668;BME280;43499;52.366;12.912;2024-02-21T01:16:41;101653.25;;;9.08;77.38
57668;BME280;43499;52.366;12.912;2024-02-21T01:17:42;101619.09;;;8.73;77.55
57668;BME280;43499;52.366;12.912;2024-02-21T01:18:43;101671.88;;;8.93;77.74
57668;BME280;43499;52.366;12.912;2024-02-21T01:19:46;101635.94;;;8.84;77.76
57668;BME280;43499;52.366;12.912;2024-02-21T01:20:47;101678.56;;;9.07;77.76
57668;BME280;43499;52.366;12.912;2024-02-21T01:21:48;101649.03;;;8.84;77.88
57668;BME280;43499;52.366;12.912;2024-02-21T01:22:49;101658.75;;;8.85;77.95
57668;BME280;43499;52.366;12.912;2024-02-21T01:23:50;101648.13;;;8.92;77.83
57668;BME280;43499;52.366;12.912;2024-02-21T01:24:51;101656.47;;;9.05;77.67
57668;BME280;43499;52.366;12.912;2024-02-21T01:25:52;101665.72;;;9.10;77.40
57668;BME280;43499;52.366;12.912;2024-02-21T01:26:53;101669.13;;;9.09;77.53
57668;BME280;43499;52.366;12.912;2024-02-21T01:27:54;101629.78;;;8.92;77.51
57668;BME280;43499;52.366;12.912;2024-02-21T01:28:55;101654.78;;;9.06;77.96
57668;BME280;43499;52.366;12.912;2024-02-21T01:29:56;101660.81;;;9.14;77.67
57668;BME280;43499;52.366;12.912;2024-02-21T01:30:57;101656.59;;;8.98;77.97
57668;BME280;43499;52.366;12.912;2024-02-21T01:31:58;101666.78;;;9.04;78.65
57668;BME280;43499;52.366;12.912;2024-02-21T01:33:00;101652.47;;;9.09;78.62
57668;BME280;43499;52.366;12.912;2024-02-21T01:34:01;101664.50;;;9.16;78.02
57668;BME280;43499;52.366;12.912;2024-02-21T01:35:02;101657.84;;;9.10;78.51
57668;BME280;43499;52.366;12.912;2024-02-21T01:36:04;101650.00;;;9.02;78.39
57668;BME280;43499;52.366;12.912;2024-02-21T01:37:07;101659.59;;;9.19;78.33
57668;BME280;43499;52.366;12.912;2024-02-21T01:38:08;101668.84;;;9.24;78.39
57668;BME280;43499;52.366;12.912;2024-02-21T01:39:09;101661.09;;;8.99;79.13
57668;BME280;43499;52.366;12.912;2024-02-21T01:40:11;101637.00;;;8.94;79.31
57668;BME280;43499;52.366;12.912;2024-02-21T01:41:12;101620.31;;;8.76;79.56
57668;BME280;43499;52.366;12.912;2024-02-21T01:42:13;101653.38;;;9.09;79.30
57668;BME280;43499;52.366;12.912;2024-02-21T01:43:19;101626.31;;;8.75;79.44
57668;BME280;43499;52.366;12.912;2024-02-21T01:44:20;101660.91;;;8.89;79.48
57668;BME280;43499;52.366;12.912;2024-02-21T01:45:21;101655.09;;;8.91;80.22
57668;BME280;43499;52.366;12.912;2024-02-21T01:46:23;101659.56;;;9.10;79.95
57668;BME280;43499;52.366;12.912;2024-02-21T01:47:28;101650.75;;;9.09;80.25
57668;BME280;43499;52.366;12.912;2024-02-21T01:48:30;101635.47;;;8.97;80.29
57668;BME280;43499;52.366;12.912;2024-02-21T01:49:31;101645.50;;;8.92;80.32
57668;BME280;43499;52.366;12.912;2024-02-21T01:50:33;101646.25;;;8.82;80.57
57668;BME280;43499;52.366;12.912;2024-02-21T01:51:34;101616.31;;;8.71;81.31
57668;BME280;43499;52.366;12.912;2024-02-21T01:52:35;101615.84;;;8.75;80.48
57668;BME280;43499;52.366;12.912;2024-02-21T01:53:38;101630.56;;;9.00;80.95
57668;BME280;43499;52.366;12.912;2024-02-21T01:54:44;101653.41;;;9.01;80.88
57668;BME280;43499;52.366;12.912;2024-02-21T01:55:45;101653.06;;;9.15;80.28
57668;BME280;43499;52.366;12.912;2024-02-21T01:56:47;101618.16;;;8.81;80.77
57668;BME280;43499;52.366;12.912;2024-02-21T01:57:49;101632.25;;;8.90;81.02
57668;BME280;43499;52.366;12.912;2024-02-21T01:58:50;101643.66;;;9.00;80.70
57668;BME280;43499;52.366;12.912;2024-02-21T01:59:52;101640.25;;;8.92;81.25
57668;BME280;43499;52.366;12.912;2024-02-21T02:00:53;101645.66;;;9.02;80.54
57668;BME280;43499;52.366;12.912;2024-02-21T02:01:58;101636.84;;;8.84;81.34
57668;BME280;43499;52.366;12.912;2024-02-21T02:02:59;101644.41;;;8.90;81.49
57668;BME280;43499;52.366;12.912;2024-02-21T02:04:00;101623.00;;;8.94;81.57
57668;BME280;43499;52.366;12.912;2024-02-21T02:05:01;101610.81;;;9.03;80.74
57668;BME280;43499;52.366;12.912;2024-02-21T02:06:04;101621.00;;;9.09;80.51
57668;BME280;43499;52.366;12.912;2024-02-21T02:07:06;101625.94;;;9.15;80.21
57668;BME280;43499;52.366;12.912;2024-02-21T02:08:07;101619.28;;;9.09;80.11
57668;BME280;43499;52.366;12.912;2024-02-21T02:09:08;101610.03;;;9.04;80.97
57668;BME280;43499;52.366;12.912;2024-02-21T02:10:09;101624.41;;;9.17;81.14
57668;BME280;43499;52.366;12.912;2024-02-21T02:11:13;101620.97;;;8.83;81.50
57668;BME280;43499;52.366;12.912;2024-02-21T02:12:14;101624.84;;;8.95;81.78
57668;BME280;43499;52.366;12.912;2024-02-21T02:13:15;101610.50;;;8.91;81.89
57668;BME280;43499;52.366;12.912;2024-02-21T02:14:16;101585.66;;;8.97;81.43
57668;BME280;43499;52.366;12.912;2024-02-21T02:15:17;101610.75;;;8.68;82.23
57668;BME280;43499;52.366;12.912;2024-02-21T02:16:18;101625.41;;;8.75;83.19
57668;BME280;43499;52.366;12.912;2024-02-21T02:17:19;101624.34;;;8.82;83.60
57668;BME280;43499;52.366;12.912;2024-02-21T02:18:20;101619.84;;;8.72;83.82
57668;BME280;43499;52.366;12.912;2024-02-21T02:19:22;101617.72;;;8.68;84.16
57668;BME280;43499;52.366;12.912;2024-02-21T02:20:23;101614.59;;;8.72;84.18
57668;BME280;43499;52.366;12.912;2024-02-21T02:21:29;101619.22;;;8.74;84.30
57668;BME280;43499;52.366;12.912;2024-02-21T02:22:32;101576.50;;;8.58;84.63
57668;BME280;43499;52.366;12.912;2024-02-21T02:23:35;101615.13;;;8.94;84.14
57668;BME280;43499;52.366;12.912;2024-02-21T02:24:36;101614.94;;;8.92;83.98
57668;BME280;43499;52.366;12.912;2024-02-21T02:25:38;101616.13;;;8.70;84.79
57668;BME280;43499;52.366;12.912;2024-02-21T02:26:40;101614.78;;;8.82;84.90
57668;BME280;43499;52.366;12.912;2024-02-21T02:27:41;101578.84;;;8.63;84.62
57668;BME280;43499;52.366;12.912;2024-02-21T02:28:44;101607.53;;;8.62;85.42
57668;BME280;43499;52.366;12.912;2024-02-21T02:29:45;101604.31;;;8.73;85.93
57668;BME280;43499;52.366;12.912;2024-02-21T02:30:47;101609.09;;;8.86;84.80
57668;BME280;43499;52.366;12.912;2024-02-21T02:31:49;101616.34;;;8.98;85.16
57668;BME280;43499;52.366;12.912;2024-02-21T02:32:50;101564.66;;;8.70;84.84
57668;BME280;43499;52.366;12.912;2024-02-21T02:33:51;101596.75;;;8.85;85.36
57668;BME280;43499;52.366;12.912;2024-02-21T02:34:52;101606.94;;;8.91;85.13
57668;BME280;43499;52.366;12.912;2024-02-21T02:35:53;101607.09;;;8.92;85.09
57668;BME280;43499;52.366;12.912;2024-02-21T02:36:55;101606.78;;;8.80;85.33
57668;BME280;43499;52.366;12.912;2024-02-21T02:37:56;101605.09;;;8.90;86.35
57668;BME280;43499;52.366;12.912;2024-02-21T02:38:57;101610.59;;;8.67;86.09
57668;BME280;43499;52.366;12.912;2024-02-21T02:39:58;101566.34;;;8.61;86.08
57668;BME280;43499;52.366;12.912;2024-02-21T02:40:59;101607.03;;;8.66;86.84
57668;BME280;43499;52.366;12.912;2024-02-21T02:42:01;101593.63;;;8.72;87.33
57668;BME280;43499;52.366;12.912;2024-02-21T02:43:02;101595.47;;;8.64;87.29
57668;BME280;43499;52.366;12.912;2024-02-21T02:44:04;101590.38;;;8.57;87.05
57668;BME280;43499;52.366;12.912;2024-02-21T02:45:05;101597.03;;;8.71;87.28
57668;BME280;43499;52.366;12.912;2024-02-21T02:46:06;101598.09;;;8.64;87.03
57668;BME280;43499;52.366;12.912;2024-02-21T02:47:08;101564.31;;;8.58;87.46
57668;BME280;43499;52.366;12.912;2024-02-21T02:48:09;101589.16;;;8.71;87.20
57668;BME280;43499;52.366;12.912;2024-02-21T02:49:11;101555.53;;;8.49;87.50
57668;BME280;43499;52.366;12.912;2024-02-21T02:50:12;101593.66;;;8.80;87.53
57668;BME280;43499;52.366;12.912;2024-02-21T02:51:13;101592.91;;;8.82;87.21
57668;BME280;43499;52.366;12.912;2024-02-21T02:52:14;101590.88;;;8.70;87.40
57668;BME280;43499;52.366;12.912;2024-02-21T02:53:15;101571.88;;;8.64;87.95
57668;BME280;43499;52.366;12.912;2024-02-21T02:54:16;101576.81;;;8.70;87.96
57668;BME280;43499;52.366;12.912;2024-02-21T02:55:17;101561.19;;;8.45;87.88
57668;BME280;43499;52.366;12.912;2024-02-21T02:56:18;101588.56;;;8.64;89.01
57668;BME280;43499;52.366;12.912;2024-02-21T02:57:19;101576.91;;;8.45;88.99
57668;BME280;43499;52.366;12.912;2024-02-21T02:59:50;101584.38;;;8.58;88.69
57668;BME280;43499;52.366;12.912;2024-02-21T03:00:51;101564.63;;;8.61;89.00
57668;BME280;43499;52.366;12.912;2024-02-21T03:01:52;101588.09;;;8.60;88.89
57668;BME280;43499;52.366;12.912;2024-02-21T03:02:53;101573.25;;;8.52;89.18
57668;BME280;43499;52.366;12.912;2024-02-21T03:03:54;101558.41;;;8.43;89.70
57668;BME280;43499;52.366;12.912;2024-02-21T03:04:55;101574.75;;;8.41;90.22
57668;BME280;43499;52.366;12.912;2024-02-21T03:05:56;101571.28;;;8.24;91.51
57668;BME280;43499;52.366;12.912;2024-02-21T03:06:57;101554.81;;;8.25;92.42
57668;BME280;43499;52.366;12.912;2024-02-21T03:07:58;101557.31;;;8.32;92.65
57668;BME280;43499;52.366;12.912;2024-02-21T03:08:59;101564.88;;;8.47;92.81
57668;BME280;43499;52.366;12.912;2024-02-21T03:10:01;101572.44;;;8.44;92.68
57668;BME280;43499;52.366;12.912;2024-02-21T03:11:02;101565.22;;;8.50;92.34
57668;BME280;43499;52.366;12.912;2024-02-21T03:12:04;101565.50;;;8.44;92.35
57668;BME280;43499;52.366;12.912;2024-02-21T03:13:05;101570.88;;;8.46;92.04
57668;BME280;43499;52.366;12.912;2024-02-21T03:14:06;101562.75;;;8.52;92.14
57668;BME280;43499;52.366;12.912;2024-02-21T03:15:08;101567.22;;;8.53;92.08
57668;BME280;43499;52.366;12.912;2024-02-21T03:16:09;101522.50;;;8.33;91.67
57668;BME280;43499;52.366;12.912;2024-02-21T03:17:10;101556.06;;;8.38;92.06
57668;BME280;43499;52.366;12.912;2024-02-21T03:18:11;101560.41;;;8.46;92.10
57668;BME280;43499;52.366;12.912;2024-02-21T03:19:12;101503.66;;;8.20;92.24
57668;BME280;43499;52.366;12.912;2024-02-21T03:20:13;101562.00;;;8.53;91.87
57668;BME280;43499;52.366;12.912;2024-02-21T03:21:14;101563.03;;;8.37;92.61
57668;BME280;43499;52.366;12.912;2024-02-21T03:22:15;101558.00;;;8.47;92.58
57668;BME280;43499;52.366;12.912;2024-02-21T03:23:16;101559.34;;;8.44;92.76
57668;BME280;43499;52.366;12.912;2024-02-21T03:24:18;101528.13;;;8.21;92.75
57668;BME280;43499;52.366;12.912;2024-02-21T03:25:19;101560.53;;;8.39;92.79
57668;BME280;43499;52.366;12.912;2024-02-21T03:26:20;101549.88;;;8.28;93.26
57668;BME280;43499;52.366;12.912;2024-02-21T03:27:21;101538.69;;;8.38;93.51
57668;BME280;43499;52.366;12.912;2024-02-21T03:28:22;101552.50;;;8.28;93.42
57668;BME280;43499;52.366;12.912;2024-02-21T03:29:23;101545.28;;;8.26;94.07
57668;BME280;43499;52.366;12.912;2024-02-21T03:30:24;101539.75;;;8.40;93.81
57668;BME280;43499;52.366;12.912;2024-02-21T03:31:25;101542.31;;;8.23;93.89
57668;BME280;43499;52.366;12.912;2024-02-21T03:32:26;101543.91;;;8.38;94.11
57668;BME280;43499;52.366;12.912;2024-02-21T03:33:29;101533.28;;;8.45;93.63
57668;BME280;43499;52.366;12.912;2024-02-21T03:34:30;101523.03;;;8.13;93.74
57668;BME280;43499;52.366;12.912;2024-02-21T03:35:31;101540.03;;;8.26;94.62
57668;BME280;43499;52.366;12.912;2024-02-21T03:36:32;101539.66;;;8.14;94.46
57668;BME280;43499;52.366;12.912;2024-02-21T03:37:33;101522.09;;;8.13;94.83
57668;BME280;43499;52.366;12.912;2024-02-21T03:38:34;101466.44;;;7.80;94.44
57668;BME280;43499;52.366;12.912;2024-02-21T03:39:35;101528.13;;;8.21;94.91
57668;BME280;43499;52.366;12.912;2024-02-21T03:40:36;101520.25;;;8.03;94.19
57668;BME280;43499;52.366;12.912;2024-02-21T03:41:37;101540.16;;;8.18;94.95
57668;BME280;43499;52.366;12.912;2024-02-21T03:42:38;101541.41;;;8.22;95.06
57668;BME280;43499;52.366;12.912;2024-02-21T03:43:39;101524.28;;;8.17;94.92
57668;BME280;43499;52.366;12.912;2024-02-21T03:44:40;101522.47;;;8.25;94.77
57668;BME280;43499;52.366;12.912;2024-02-21T03:45:41;101533.25;;;8.28;94.53
57668;BME280;43499;52.366;12.912;2024-02-21T03:46:42;101518.25;;;8.09;94.72
57668;BME280;43499;52.366;12.912;2024-02-21T03:47:43;101527.69;;;8.25;95.01
57668;BME280;43499;52.366;12.912;2024-02-21T03:48:44;101511.22;;;8.26;94.15
57668;BME280;43499;52.366;12.912;2024-02-21T03:49:46;101532.59;;;8.55;94.53
57668;BME280;43499;52.366;12.912;2024-02-21T03:50:47;101507.06;;;8.28;93.52
57668;BME280;43499;52.366;12.912;2024-02-21T03:51:48;101521.09;;;8.37;93.78
57668;BME280;43499;52.366;12.912;2024-02-21T03:52:49;101488.50;;;8.00;94.88
57668;BME280;43499;52.366;12.912;2024-02-21T03:53:50;101516.91;;;8.22;94.95
57668;BME280;43499;52.366;12.912;2024-02-21T03:54:51;101521.38;;;8.23;94.65
57668;BME280;43499;52.366;12.912;2024-02-21T03:55:52;101522.00;;;8.29;94.90
57668;BME280;43499;52.366;12.912;2024-02-21T03:56:54;101523.56;;;8.27;94.74
57668;BME280;43499;52.366;12.912;2024-02-21T03:57:55;101498.53;;;8.04;94.92
57668;BME280;43499;52.366;12.912;2024-02-21T03:58:56;101518.75;;;8.23;94.96
57668;BME280;43499;52.366;12.912;2024-02-21T03:59:57;101503.03;;;8.23;95.15
57668;BME280;43499;52.366;12.912;2024-02-21T04:01:01;101518.25;;;8.09;95.12
57668;BME280;43499;52.366;12.912;2024-02-21T04:02:03;101497.47;;;8.11;95.30
57668;BME280;43499;52.366;12.912;2024-02-21T04:03:09;101515.03;;;8.21;95.63
57668;BME280;43499;52.366;12.912;2024-02-21T04:04:10;101514.56;;;8.16;95.33
57668;BME280;43499;52.366;12.912;2024-02-21T04:05:11;101490.38;;;8.10;95.42
57668;BME280;43499;52.366;12.912;2024-02-21T04:06:12;101510.28;;;8.25;95.02
57668;BME280;43499;52.366;12.912;2024-02-21T04:07:14;101501.66;;;8.26;94.70
57668;BME280;43499;52.366;12.912;2024-02-21T04:08:15;101471.00;;;8.16;94.57
57668;BME280;43499;52.366;12.912;2024-02-21T04:09:17;101465.56;;;8.06;94.38
57668;BME280;43499;52.366;12.912;2024-02-21T04:10:18;101494.75;;;8.27;94.75
57668;BME280;43499;52.366;12.912;2024-02-21T04:11:19;101490.84;;;8.14;94.98
57668;BME280;43499;52.366;12.912;2024-02-21T04:12:20;101469.72;;;8.04;95.54
57668;BME280;43499;52.366;12.912;2024-02-21T04:13:21;101480.06;;;8.11;95.14
57668;BME280;43499;52.366;12.912;2024-02-21T04:14:23;101467.44;;;8.16;95.26
57668;BME280;43499;52.366;12.912;2024-02-21T04:15:24;101481.31;;;8.24;94.97
57668;BME280;43499;52.366;12.912;2024-02-21T04:16:25;101448.09;;;7.80;95.80
57668;BME280;43499;52.366;12.912;2024-02-21T04:17:26;101443.16;;;7.83;95.77
57668;BME280;43499;52.366;12.912;2024-02-21T04:18:27;101463.22;;;8.00;95.79
57668;BME280;43499;52.366;12.912;2024-02-21T04:19:28;101455.09;;;7.97;95.86
57668;BME280;43499;52.366;12.912;2024-02-21T04:20:31;101452.03;;;8.10;95.57
57668;BME280;43499;52.366;12.912;2024-02-21T04:21:33;101426.56;;;8.00;95.28
57668;BME280;43499;52.366;12.912;2024-02-21T04:22:34;101440.94;;;8.04;95.57
57668;BME280;43499;52.366;12.912;2024-02-21T04:23:35;101415.47;;;7.85;94.84
57668;BME280;43499;52.366;12.912;2024-02-21T04:24:36;101459.88;;;8.10;95.34
57668;BME280;43499;52.366;12.912;2024-02-21T04:25:37;101443.88;;;8.16;95.75
57668;BME280;43499;52.366;12.912;2024-02-21T04:26:38;101432.94;;;8.20;95.18
57668;BME280;43499;52.366;12.912;2024-02-21T04:27:40;101446.19;;;8.22;95.27
57668;BME280;43499;52.366;12.912;2024-02-21T04:28:41;101422.28;;;8.01;95.08
57668;BME280;43499;52.366;12.912;2024-02-21T04:29:42;101439.41;;;8.15;95.02
57668;BME280;43499;52.366;12.912;2024-02-21T04:30:43;101427.06;;;8.05;95.58
57668;BME280;43499;52.366;12.912;2024-02-21T04:31:44;101429.53;;;8.12;95.67
57668;BME280;43499;52.366;12.912;2024-02-21T04:32:46;101446.03;;;8.38;94.65
57668;BME280;43499;52.366;12.912;2024-02-21T04:33:47;101409.34;;;8.11;94.34
57668;BME280;43499;52.366;12.912;2024-02-21T04:34:48;101381.16;;;8.00;94.32
57668;BME280;43499;52.366;12.912;2024-02-21T04:35:49;101447.88;;;8.30;95.07
57668;BME280;43499;52.366;12.912;2024-02-21T04:36:50;101436.78;;;8.24;94.83
57668;BME280;43499;52.366;12.912;2024-02-21T04:37:51;101422.78;;;8.14;94.65
57668;BME280;43499;52.366;12.912;2024-02-21T04:38:52;101424.78;;;8.26;94.31
57668;BME280;43499;52.366;12.912;2024-02-21T04:39:53;101429.09;;;8.34;94.24
57668;BME280;43499;52.366;12.912;2024-02-21T04:40:55;101414.16;;;8.15;94.51
57668;BME280;43499;52.366;12.912;2024-02-21T04:41:59;101428.44;;;8.10;94.62
57668;BME280;43499;52.366;12.912;2024-02-21T04:43:00;101429.66;;;7.96;95.58
57668;BME280;43499;52.366;12.912;2024-02-21T04:44:01;101422.25;;;7.92;95.68
57668;BME280;43499;52.366;12.912;2024-02-21T04:45:04;101411.75;;;7.83;95.61
57668;BME280;43499;52.366;12.912;2024-02-21T04:46:06;101414.88;;;7.97;96.15
57668;BME280;43499;52.366;12.912;2024-02-21T04:47:07;101412.72;;;7.93;96.21
57668;BME280;43499;52.366;12.912;2024-02-21T04:48:08;101399.00;;;7.86;96.13
57668;BME280;43499;52.366;12.912;2024-02-21T04:49:09;101407.94;;;7.88;95.88
57668;BME280;43499;52.366;12.912;2024-02-21T04:50:10;101402.06;;;7.91;95.84
57668;BME280;43499;52.366;12.912;2024-02-21T04:51:12;101362.16;;;7.59;96.14
57668;BME280;43499;52.366;12.912;2024-02-21T04:52:14;101387.72;;;7.70;95.90
57668;BME280;43499;52.366;12.912;2024-02-21T04:53:15;101414.44;;;8.01;95.88
57668;BME280;43499;52.366;12.912;2024-02-21T04:54:16;101419.31;;;7.80;96.22
57668;BME280;43499;52.366;12.912;2024-02-21T04:55:17;101363.25;;;7.78;96.11
57668;BME280;43499;52.366;12.912;2024-02-21T04:56:18;101421.03;;;8.06;95.68
57668;BME280;43499;52.366;12.912;2024-02-21T04:57:19;101380.75;;;7.62;95.58
57668;BME280;43499;52.366;12.912;2024-02-21T04:58:20;101410.06;;;7.84;96.39
57668;BME280;43499;52.366;12.912;2024-02-21T04:59:22;101412.38;;;7.81;96.24
57668;BME280;43499;52.366;12.912;2024-02-21T05:00:23;101405.13;;;7.78;96.36
57668;BME280;43499;52.366;12.912;2024-02-21T05:01:24;101374.78;;;7.71;95.84
57668;BME280;43499;52.366;12.912;2024-02-21T05:02:26;101415.75;;;7.80;96.10
57668;BME280;43499;52.366;12.912;2024-02-21T05:03:28;101409.50;;;8.13;95.75
57668;BME280;43499;52.366;12.912;2024-02-21T05:04:29;101405.97;;;8.12;94.85
57668;BME280;43499;52.366;12.912;2024-02-21T05:05:30;101421.19;;;7.99;95.06
57668;BME280;43499;52.366;12.912;2024-02-21T05:06:31;101400.50;;;7.84;95.20
57668;BME280;43499;52.366;12.912;2024-02-21T05:07:32;101400.91;;;8.05;95.67
57668;BME280;43499;52.366;12.912;2024-02-21T05:08:33;101398.56;;;7.99;95.19
57668;BME280;43499;52.366;12.912;2024-02-21T05:09:34;101417.66;;;7.98;95.39
57668;BME280;43499;52.366;12.912;2024-02-21T05:10:35;101390.16;;;7.68;96.09
57668;BME280;43499;52.366;12.912;2024-02-21T05:11:36;101392.97;;;7.70;95.90
57668;BME280;43499;52.366;12.912;2024-02-21T05:12:38;101416.22;;;7.84;96.11
57668;BME280;43499;52.366;12.912;2024-02-21T05:13:39;101401.50;;;7.94;96.38
57668;BME280;43499;52.366;12.912;2024-02-21T05:14:40;101406.13;;;8.05;95.71
57668;BME280;43499;52.366;12.912;2024-02-21T05:15:41;101426.13;;;8.05;95.72
57668;BME280;43499;52.366;12.912;2024-02-21T05:16:42;101410.53;;;7.88;95.54
57668;BME280;43499;52.366;12.912;2024-02-21T05:17:43;101412.72;;;7.93;95.69
57668;BME280;43499;52.366;12.912;2024-02-21T05:18:44;101417.47;;;7.97;95.78
57668;BME280;43499;52.366;12.912;2024-02-21T05:19:45;101414.06;;;7.89;96.18
57668;BME280;43499;52.366;12.912;2024-02-21T05:20:46;101421.16;;;7.90;96.20
57668;BME280;43499;52.366;12.912;2024-02-21T05:21:47;101413.34;;;7.99;96.15